sensor_id;sensor_type;location;lat;lon;timestamp;P1;durP1;ratioP1;P2;durP2;ratioP2
46731;SDS011;32477;51.474;5.696;2023-02-18T00:02:07;35.25;;;16.92;;
46731;SDS011;32477;51.474;5.696;2023-02-18T00:04:33;32.83;;;17.45;;
46731;SDS011;32477;51.474;5.696;2023-02-18T00:06:59;33.92;;;16.45;;
46731;SDS011;32477;51.474;5.696;2023-02-18T00:09:25;34.42;;;17.40;;
46731;SDS011;32477;51.474;5.696;2023-02-18T00:11:51;36.50;;;17.85;;
46731;SDS011;32477;51.474;5.696;2023-02-18T00:14:16;33.78;;;16.05;;
46731;SDS011;32477;51.474;5.696;2023-02-18T00:16:43;32.88;;;17.10;;
46731;SDS011;32477;51.474;5.696;2023-02-18T00:19:10;34.90;;;17.85;;
46731;SDS011;32477;51.474;5.696;2023-02-18T00:21:38;34.60;;;18.48;;
46731;SDS011;32477;51.474;5.696;2023-02-18T00:24:05;32.58;;;17.63;;
46731;SDS011;32477;51.474;5.696;2023-02-18T00:26:32;38.03;;;16.92;;
46731;SDS011;32477;51.474;5.696;2023-02-18T00:28:58;35.38;;;18.08;;
46731;SDS011;32477;51.474;5.696;2023-02-18T00:31:24;36.13;;;17.92;;
46731;SDS011;32477;51.474;5.696;2023-02-18T00:33:52;36.60;;;19.88;;
46731;SDS011;32477;51.474;5.696;2023-02-18T00:36:19;31.50;;;17.42;;
46731;SDS011;32477;51.474;5.696;2023-02-18T00:38:56;37.50;;;18.27;;
46731;SDS011;32477;51.474;5.696;2023-02-18T00:41:24;38.90;;;17.45;;
46731;SDS011;32477;51.474;5.696;2023-02-18T00:43:51;35.40;;;17.70;;
46731;SDS011;32477;51.474;5.696;2023-02-18T00:46:17;40.53;;;17.98;;
46731;SDS011;32477;51.474;5.696;2023-02-18T00:48:43;32.53;;;16.67;;
46731;SDS011;32477;51.474;5.696;2023-02-18T00:51:09;36.97;;;16.90;;
46731;SDS011;32477;51.474;5.696;2023-02-18T00:53:35;37.05;;;17.55;;
46731;SDS011;32477;51.474;5.696;2023-02-18T00:56:02;42.13;;;17.25;;
46731;SDS011;32477;51.474;5.696;2023-02-18T00:58:28;31.42;;;15.65;;
46731;SDS011;32477;51.474;5.696;2023-02-18T01:00:54;28.67;;;15.07;;
46731;SDS011;32477;51.474;5.696;2023-02-18T01:03:20;31.63;;;15.55;;
46731;SDS011;32477;51.474;5.696;2023-02-18T01:05:49;29.20;;;15.45;;
46731;SDS011;32477;51.474;5.696;2023-02-18T01:08:15;34.50;;;17.15;;
46731;SDS011;32477;51.474;5.696;2023-02-18T01:10:44;30.95;;;16.02;;
46731;SDS011;32477;51.474;5.696;2023-02-18T01:13:12;30.58;;;14.88;;
46731;SDS011;32477;51.474;5.696;2023-02-18T01:15:39;35.85;;;15.52;;
46731;SDS011;32477;51.474;5.696;2023-02-18T01:18:05;26.50;;;14.23;;
46731;SDS011;32477;51.474;5.696;2023-02-18T01:20:32;25.25;;;13.98;;
46731;SDS011;32477;51.474;5.696;2023-02-18T01:22:59;32.90;;;15.40;;
46731;SDS011;32477;51.474;5.696;2023-02-18T01:25:24;28.98;;;15.85;;
46731;SDS011;32477;51.474;5.696;2023-02-18T01:27:50;28.58;;;14.93;;
46731;SDS011;32477;51.474;5.696;2023-02-18T01:30:16;27.92;;;14.35;;
46731;SDS011;32477;51.474;5.696;2023-02-18T01:32:42;26.98;;;13.18;;
46731;SDS011;32477;51.474;5.696;2023-02-18T01:35:10;21.63;;;12.25;;
46731;SDS011;32477;51.474;5.696;2023-02-18T01:37:40;26.55;;;12.95;;
46731;SDS011;32477;51.474;5.696;2023-02-18T01:40:06;25.63;;;12.52;;
46731;SDS011;32477;51.474;5.696;2023-02-18T01:42:33;28.63;;;14.18;;
46731;SDS011;32477;51.474;5.696;2023-02-18T01:48:10;22.27;;;11.93;;
46731;SDS011;32477;51.474;5.696;2023-02-18T01:50:41;24.42;;;12.68;;
46731;SDS011;32477;51.474;5.696;2023-02-18T01:53:11;21.65;;;11.52;;
46731;SDS011;32477;51.474;5.696;2023-02-18T01:55:40;21.98;;;11.95;;
46731;SDS011;32477;51.474;5.696;2023-02-18T01:58:06;22.45;;;13.18;;
46731;SDS011;32477;51.474;5.696;2023-02-18T02:00:33;28.17;;;13.20;;
46731;SDS011;32477;51.474;5.696;2023-02-18T02:03:00;23.70;;;11.77;;
46731;SDS011;32477;51.474;5.696;2023-02-18T02:05:29;27.75;;;12.60;;
46731;SDS011;32477;51.474;5.696;2023-02-18T02:07:56;24.48;;;12.23;;
46731;SDS011;32477;51.474;5.696;2023-02-18T02:10:23;24.33;;;13.50;;
46731;SDS011;32477;51.474;5.696;2023-02-18T02:13:12;27.63;;;14.18;;
46731;SDS011;32477;51.474;5.696;2023-02-18T02:15:48;25.98;;;14.25;;
46731;SDS011;32477;51.474;5.696;2023-02-18T02:21:40;25.95;;;14.50;;
46731;SDS011;32477;51.474;5.696;2023-02-18T02:32:41;33.10;;;15.52;;
46731;SDS011;32477;51.474;5.696;2023-02-18T02:35:31;37.38;;;15.40;;
46731;SDS011;32477;51.474;5.696;2023-02-18T02:40:46;34.00;;;16.75;;
46731;SDS011;32477;51.474;5.696;2023-02-18T02:46:20;27.48;;;15.23;;
46731;SDS011;32477;51.474;5.696;2023-02-18T02:51:47;28.75;;;14.20;;
46731;SDS011;32477;51.474;5.696;2023-02-18T02:54:22;32.10;;;16.48;;
46731;SDS011;32477;51.474;5.696;2023-02-18T02:56:49;31.80;;;14.90;;
46731;SDS011;32477;51.474;5.696;2023-02-18T02:59:28;34.88;;;15.95;;
46731;SDS011;32477;51.474;5.696;2023-02-18T03:05:07;35.17;;;14.77;;
46731;SDS011;32477;51.474;5.696;2023-02-18T03:16:57;23.80;;;11.93;;
46731;SDS011;32477;51.474;5.696;2023-02-18T03:19:19;23.55;;;11.82;;
46731;SDS011;32477;51.474;5.696;2023-02-18T03:21:54;24.95;;;11.00;;
46731;SDS011;32477;51.474;5.696;2023-02-18T03:24:40;21.95;;;10.65;;
46731;SDS011;32477;51.474;5.696;2023-02-18T03:27:12;26.75;;;10.93;;
46731;SDS011;32477;51.474;5.696;2023-02-18T03:29:53;21.45;;;10.23;;
46731;SDS011;32477;51.474;5.696;2023-02-18T03:32:23;18.90;;;10.18;;
46731;SDS011;32477;51.474;5.696;2023-02-18T03:34:53;25.42;;;10.18;;
46731;SDS011;32477;51.474;5.696;2023-02-18T03:37:23;20.23;;;9.40;;
46731;SDS011;32477;51.474;5.696;2023-02-18T03:39:51;18.55;;;8.90;;
46731;SDS011;32477;51.474;5.696;2023-02-18T03:42:23;20.88;;;9.07;;
46731;SDS011;32477;51.474;5.696;2023-02-18T03:44:51;21.67;;;9.30;;
46731;SDS011;32477;51.474;5.696;2023-02-18T03:47:16;21.70;;;8.18;;
46731;SDS011;32477;51.474;5.696;2023-02-18T03:49:42;18.08;;;8.90;;
46731;SDS011;32477;51.474;5.696;2023-02-18T03:52:08;19.35;;;8.50;;
46731;SDS011;32477;51.474;5.696;2023-02-18T03:54:33;15.35;;;6.82;;
46731;SDS011;32477;51.474;5.696;2023-02-18T03:56:59;15.15;;;6.72;;
46731;SDS011;32477;51.474;5.696;2023-02-18T03:59:24;14.55;;;6.35;;
46731;SDS011;32477;51.474;5.696;2023-02-18T04:01:50;13.73;;;6.40;;
46731;SDS011;32477;51.474;5.696;2023-02-18T04:04:16;12.00;;;5.72;;
46731;SDS011;32477;51.474;5.696;2023-02-18T04:06:41;12.82;;;6.22;;
46731;SDS011;32477;51.474;5.696;2023-02-18T04:09:07;9.27;;;4.60;;
46731;SDS011;32477;51.474;5.696;2023-02-18T04:11:36;11.25;;;4.88;;
46731;SDS011;32477;51.474;5.696;2023-02-18T04:14:03;8.65;;;4.13;;
46731;SDS011;32477;51.474;5.696;2023-02-18T04:16:29;9.77;;;5.03;;
46731;SDS011;32477;51.474;5.696;2023-02-18T04:18:55;13.38;;;4.63;;
46731;SDS011;32477;51.474;5.696;2023-02-18T04:21:21;10.60;;;4.10;;
46731;SDS011;32477;51.474;5.696;2023-02-18T04:23:46;5.88;;;3.08;;
46731;SDS011;32477;51.474;5.696;2023-02-18T04:26:12;6.35;;;2.92;;
46731;SDS011;32477;51.474;5.696;2023-02-18T04:28:38;6.78;;;3.25;;
46731;SDS011;32477;51.474;5.696;2023-02-18T04:31:03;8.13;;;4.25;;
46731;SDS011;32477;51.474;5.696;2023-02-18T04:33:29;6.28;;;2.90;;
46731;SDS011;32477;51.474;5.696;2023-02-18T04:35:55;5.22;;;2.50;;
46731;SDS011;32477;51.474;5.696;2023-02-18T04:38:20;4.53;;;2.45;;
46731;SDS011;32477;51.474;5.696;2023-02-18T04:40:47;8.63;;;2.92;;
46731;SDS011;32477;51.474;5.696;2023-02-18T04:43:12;7.97;;;2.33;;
46731;SDS011;32477;51.474;5.696;2023-02-18T04:45:38;6.13;;;2.33;;
46731;SDS011;32477;51.474;5.696;2023-02-18T04:48:04;4.00;;;2.30;;
46731;SDS011;32477;51.474;5.696;2023-02-18T04:50:30;4.10;;;2.50;;
46731;SDS011;32477;51.474;5.696;2023-02-18T04:52:56;3.72;;;2.03;;
46731;SDS011;32477;51.474;5.696;2023-02-18T04:55:21;4.00;;;2.35;;
46731;SDS011;32477;51.474;5.696;2023-02-18T04:57:47;4.10;;;2.33;;
46731;SDS011;32477;51.474;5.696;2023-02-18T05:00:14;3.58;;;1.85;;
46731;SDS011;32477;51.474;5.696;2023-02-18T05:02:41;3.75;;;1.95;;
46731;SDS011;32477;51.474;5.696;2023-02-18T05:05:07;4.45;;;1.70;;
46731;SDS011;32477;51.474;5.696;2023-02-18T05:07:33;5.03;;;2.00;;
46731;SDS011;32477;51.474;5.696;2023-02-18T05:09:58;4.15;;;2.13;;
46731;SDS011;32477;51.474;5.696;2023-02-18T05:12:24;3.45;;;2.10;;
46731;SDS011;32477;51.474;5.696;2023-02-18T05:14:50;3.03;;;1.70;;
46731;SDS011;32477;51.474;5.696;2023-02-18T05:17:15;3.10;;;1.60;;
46731;SDS011;32477;51.474;5.696;2023-02-18T05:19:41;3.90;;;2.05;;
46731;SDS011;32477;51.474;5.696;2023-02-18T05:22:06;4.03;;;2.08;;
46731;SDS011;32477;51.474;5.696;2023-02-18T05:24:32;3.50;;;2.10;;
46731;SDS011;32477;51.474;5.696;2023-02-18T05:26:58;3.47;;;2.10;;
46731;SDS011;32477;51.474;5.696;2023-02-18T05:29:24;2.45;;;1.67;;
46731;SDS011;32477;51.474;5.696;2023-02-18T05:31:50;3.13;;;1.88;;
46731;SDS011;32477;51.474;5.696;2023-02-18T05:34:16;2.75;;;1.63;;
46731;SDS011;32477;51.474;5.696;2023-02-18T05:36:42;4.80;;;1.95;;
46731;SDS011;32477;51.474;5.696;2023-02-18T05:39:07;2.83;;;1.90;;
46731;SDS011;32477;51.474;5.696;2023-02-18T05:41:33;2.85;;;1.80;;
46731;SDS011;32477;51.474;5.696;2023-02-18T05:43:59;3.55;;;2.00;;
46731;SDS011;32477;51.474;5.696;2023-02-18T05:46:43;2.97;;;1.70;;
46731;SDS011;32477;51.474;5.696;2023-02-18T05:49:09;4.68;;;2.17;;
46731;SDS011;32477;51.474;5.696;2023-02-18T05:51:35;3.15;;;1.65;;
46731;SDS011;32477;51.474;5.696;2023-02-18T05:54:01;2.72;;;1.80;;
46731;SDS011;32477;51.474;5.696;2023-02-18T05:56:26;3.80;;;2.25;;
46731;SDS011;32477;51.474;5.696;2023-02-18T05:58:52;3.65;;;2.03;;
46731;SDS011;32477;51.474;5.696;2023-02-18T06:01:18;3.95;;;2.00;;
46731;SDS011;32477;51.474;5.696;2023-02-18T06:03:43;3.00;;;1.77;;
46731;SDS011;32477;51.474;5.696;2023-02-18T06:06:09;3.33;;;1.85;;
46731;SDS011;32477;51.474;5.696;2023-02-18T06:08:34;3.08;;;1.98;;
46731;SDS011;32477;51.474;5.696;2023-02-18T06:11:00;4.22;;;2.72;;
46731;SDS011;32477;51.474;5.696;2023-02-18T06:13:26;3.30;;;2.05;;
46731;SDS011;32477;51.474;5.696;2023-02-18T06:15:52;3.67;;;2.25;;
46731;SDS011;32477;51.474;5.696;2023-02-18T06:18:18;4.18;;;2.67;;
46731;SDS011;32477;51.474;5.696;2023-02-18T06:20:45;5.40;;;2.42;;
46731;SDS011;32477;51.474;5.696;2023-02-18T06:23:12;5.13;;;2.47;;
46731;SDS011;32477;51.474;5.696;2023-02-18T06:25:37;4.38;;;2.60;;
46731;SDS011;32477;51.474;5.696;2023-02-18T06:28:03;4.45;;;2.42;;
46731;SDS011;32477;51.474;5.696;2023-02-18T06:30:29;5.65;;;2.95;;
46731;SDS011;32477;51.474;5.696;2023-02-18T06:32:55;4.97;;;2.97;;
46731;SDS011;32477;51.474;5.696;2023-02-18T06:35:21;6.00;;;3.50;;
46731;SDS011;32477;51.474;5.696;2023-02-18T06:37:46;4.72;;;3.20;;
46731;SDS011;32477;51.474;5.696;2023-02-18T06:40:12;4.90;;;2.88;;
46731;SDS011;32477;51.474;5.696;2023-02-18T06:42:37;5.93;;;3.50;;
46731;SDS011;32477;51.474;5.696;2023-02-18T06:45:03;5.40;;;3.17;;
46731;SDS011;32477;51.474;5.696;2023-02-18T06:47:30;5.13;;;3.00;;
46731;SDS011;32477;51.474;5.696;2023-02-18T06:49:56;5.32;;;3.53;;
46731;SDS011;32477;51.474;5.696;2023-02-18T06:52:22;7.35;;;3.83;;
46731;SDS011;32477;51.474;5.696;2023-02-18T06:54:47;5.60;;;3.45;;
46731;SDS011;32477;51.474;5.696;2023-02-18T06:57:13;4.68;;;3.00;;
46731;SDS011;32477;51.474;5.696;2023-02-18T06:59:38;5.38;;;2.80;;
46731;SDS011;32477;51.474;5.696;2023-02-18T07:02:04;4.40;;;2.60;;
46731;SDS011;32477;51.474;5.696;2023-02-18T07:04:30;4.22;;;2.70;;
46731;SDS011;32477;51.474;5.696;2023-02-18T07:06:55;7.43;;;2.85;;
46731;SDS011;32477;51.474;5.696;2023-02-18T07:09:21;5.35;;;2.95;;
46731;SDS011;32477;51.474;5.696;2023-02-18T07:11:46;4.43;;;2.72;;
46731;SDS011;32477;51.474;5.696;2023-02-18T07:14:12;5.88;;;3.50;;
46731;SDS011;32477;51.474;5.696;2023-02-18T07:16:37;8.02;;;3.42;;
46731;SDS011;32477;51.474;5.696;2023-02-18T07:19:03;5.65;;;3.47;;
46731;SDS011;32477;51.474;5.696;2023-02-18T07:21:29;6.15;;;3.50;;
46731;SDS011;32477;51.474;5.696;2023-02-18T07:23:54;6.68;;;3.33;;
46731;SDS011;32477;51.474;5.696;2023-02-18T07:26:20;7.53;;;3.40;;
46731;SDS011;32477;51.474;5.696;2023-02-18T07:28:45;5.80;;;3.00;;
46731;SDS011;32477;51.474;5.696;2023-02-18T07:31:11;9.80;;;2.97;;
46731;SDS011;32477;51.474;5.696;2023-02-18T07:33:36;8.13;;;3.90;;
46731;SDS011;32477;51.474;5.696;2023-02-18T07:36:02;13.30;;;4.95;;
46731;SDS011;32477;51.474;5.696;2023-02-18T07:38:28;11.88;;;4.78;;
46731;SDS011;32477;51.474;5.696;2023-02-18T07:40:54;13.35;;;4.68;;
46731;SDS011;32477;51.474;5.696;2023-02-18T07:43:20;15.85;;;4.50;;
46731;SDS011;32477;51.474;5.696;2023-02-18T07:45:46;13.68;;;5.18;;
46731;SDS011;32477;51.474;5.696;2023-02-18T07:48:12;18.77;;;5.40;;
46731;SDS011;32477;51.474;5.696;2023-02-18T07:50:39;18.17;;;4.88;;
46731;SDS011;32477;51.474;5.696;2023-02-18T07:53:05;16.40;;;4.53;;
46731;SDS011;32477;51.474;5.696;2023-02-18T07:55:31;13.50;;;3.83;;
46731;SDS011;32477;51.474;5.696;2023-02-18T07:58:19;13.63;;;3.53;;
46731;SDS011;32477;51.474;5.696;2023-02-18T08:00:50;13.02;;;3.17;;
46731;SDS011;32477;51.474;5.696;2023-02-18T08:03:20;16.23;;;3.03;;
46731;SDS011;32477;51.474;5.696;2023-02-18T08:05:54;13.43;;;3.30;;
46731;SDS011;32477;51.474;5.696;2023-02-18T08:08:21;10.93;;;3.13;;
46731;SDS011;32477;51.474;5.696;2023-02-18T08:10:51;9.63;;;2.67;;
46731;SDS011;32477;51.474;5.696;2023-02-18T08:13:23;12.90;;;2.72;;
46731;SDS011;32477;51.474;5.696;2023-02-18T08:15:56;17.92;;;4.00;;
46731;SDS011;32477;51.474;5.696;2023-02-18T08:18:29;7.15;;;2.72;;
46731;SDS011;32477;51.474;5.696;2023-02-18T08:20:55;19.30;;;5.10;;
46731;SDS011;32477;51.474;5.696;2023-02-18T08:23:22;12.73;;;3.47;;
46731;SDS011;32477;51.474;5.696;2023-02-18T08:25:50;9.38;;;3.42;;
46731;SDS011;32477;51.474;5.696;2023-02-18T08:28:17;14.13;;;3.83;;
46731;SDS011;32477;51.474;5.696;2023-02-18T08:30:48;14.63;;;4.75;;
46731;SDS011;32477;51.474;5.696;2023-02-18T08:33:15;15.02;;;3.88;;
46731;SDS011;32477;51.474;5.696;2023-02-18T08:35:41;15.80;;;4.93;;
46731;SDS011;32477;51.474;5.696;2023-02-18T08:38:07;21.27;;;4.07;;
46731;SDS011;32477;51.474;5.696;2023-02-18T08:40:33;18.95;;;3.42;;
46731;SDS011;32477;51.474;5.696;2023-02-18T08:42:58;21.23;;;4.25;;
46731;SDS011;32477;51.474;5.696;2023-02-18T08:45:24;12.95;;;3.45;;
46731;SDS011;32477;51.474;5.696;2023-02-18T08:47:50;16.23;;;4.07;;
46731;SDS011;32477;51.474;5.696;2023-02-18T08:50:16;9.55;;;3.17;;
46731;SDS011;32477;51.474;5.696;2023-02-18T08:52:41;20.00;;;4.13;;
46731;SDS011;32477;51.474;5.696;2023-02-18T08:55:07;14.93;;;3.63;;
46731;SDS011;32477;51.474;5.696;2023-02-18T08:57:33;12.65;;;3.70;;
46731;SDS011;32477;51.474;5.696;2023-02-18T08:59:58;23.05;;;6.55;;
46731;SDS011;32477;51.474;5.696;2023-02-18T09:02:24;19.70;;;3.70;;
46731;SDS011;32477;51.474;5.696;2023-02-18T09:04:50;21.75;;;3.78;;
46731;SDS011;32477;51.474;5.696;2023-02-18T09:07:15;22.70;;;4.53;;
46731;SDS011;32477;51.474;5.696;2023-02-18T09:09:42;17.13;;;3.45;;
46731;SDS011;32477;51.474;5.696;2023-02-18T09:12:07;15.50;;;3.92;;
46731;SDS011;32477;51.474;5.696;2023-02-18T09:14:33;13.68;;;3.40;;
46731;SDS011;32477;51.474;5.696;2023-02-18T09:16:59;7.80;;;3.13;;
46731;SDS011;32477;51.474;5.696;2023-02-18T09:19:24;10.52;;;3.33;;
46731;SDS011;32477;51.474;5.696;2023-02-18T09:21:50;12.07;;;2.85;;
46731;SDS011;32477;51.474;5.696;2023-02-18T09:24:21;19.45;;;3.75;;
46731;SDS011;32477;51.474;5.696;2023-02-18T09:26:48;14.80;;;3.28;;
46731;SDS011;32477;51.474;5.696;2023-02-18T09:29:14;11.93;;;3.20;;
46731;SDS011;32477;51.474;5.696;2023-02-18T09:31:40;15.23;;;4.00;;
46731;SDS011;32477;51.474;5.696;2023-02-18T09:34:06;20.08;;;3.25;;
46731;SDS011;32477;51.474;5.696;2023-02-18T09:36:32;13.55;;;3.58;;
46731;SDS011;32477;51.474;5.696;2023-02-18T09:38:57;14.50;;;3.92;;
46731;SDS011;32477;51.474;5.696;2023-02-18T09:41:26;18.95;;;3.92;;
46731;SDS011;32477;51.474;5.696;2023-02-18T09:44:13;15.80;;;4.25;;
46731;SDS011;32477;51.474;5.696;2023-02-18T09:46:48;16.83;;;3.20;;
46731;SDS011;32477;51.474;5.696;2023-02-18T09:49:43;11.05;;;2.75;;
46731;SDS011;32477;51.474;5.696;2023-02-18T09:52:18;27.52;;;4.22;;
46731;SDS011;32477;51.474;5.696;2023-02-18T09:54:47;14.15;;;3.60;;
46731;SDS011;32477;51.474;5.696;2023-02-18T09:57:37;8.82;;;2.92;;
46731;SDS011;32477;51.474;5.696;2023-02-18T10:00:28;12.88;;;2.97;;
46731;SDS011;32477;51.474;5.696;2023-02-18T10:02:56;6.95;;;2.85;;
46731;SDS011;32477;51.474;5.696;2023-02-18T10:05:25;7.88;;;2.70;;
46731;SDS011;32477;51.474;5.696;2023-02-18T10:07:54;11.75;;;3.10;;
46731;SDS011;32477;51.474;5.696;2023-02-18T10:10:33;9.57;;;2.50;;
46731;SDS011;32477;51.474;5.696;2023-02-18T10:13:10;9.73;;;2.90;;
46731;SDS011;32477;51.474;5.696;2023-02-18T10:15:38;10.35;;;2.40;;
46731;SDS011;32477;51.474;5.696;2023-02-18T10:18:04;10.23;;;3.22;;
46731;SDS011;32477;51.474;5.696;2023-02-18T10:20:45;10.77;;;3.10;;
46731;SDS011;32477;51.474;5.696;2023-02-18T10:23:14;18.20;;;4.43;;
46731;SDS011;32477;51.474;5.696;2023-02-18T10:25:41;16.70;;;3.47;;
46731;SDS011;32477;51.474;5.696;2023-02-18T10:28:09;14.73;;;2.90;;
46731;SDS011;32477;51.474;5.696;2023-02-18T10:30:40;5.05;;;2.50;;
46731;SDS011;32477;51.474;5.696;2023-02-18T10:33:16;11.07;;;3.10;;
46731;SDS011;32477;51.474;5.696;2023-02-18T10:35:52;12.27;;;3.28;;
46731;SDS011;32477;51.474;5.696;2023-02-18T10:41:20;8.95;;;3.15;;
46731;SDS011;32477;51.474;5.696;2023-02-18T10:43:53;12.57;;;3.42;;
46731;SDS011;32477;51.474;5.696;2023-02-18T10:51:52;18.60;;;4.90;;
46731;SDS011;32477;51.474;5.696;2023-02-18T10:54:25;9.77;;;4.07;;
46731;SDS011;32477;51.474;5.696;2023-02-18T10:57:14;13.10;;;4.70;;
46731;SDS011;32477;51.474;5.696;2023-02-18T10:59:45;14.15;;;5.38;;
46731;SDS011;32477;51.474;5.696;2023-02-18T11:02:19;19.45;;;6.53;;
46731;SDS011;32477;51.474;5.696;2023-02-18T11:04:48;18.17;;;6.10;;
46731;SDS011;32477;51.474;5.696;2023-02-18T11:07:21;14.52;;;6.22;;
46731;SDS011;32477;51.474;5.696;2023-02-18T11:09:51;19.23;;;7.75;;
46731;SDS011;32477;51.474;5.696;2023-02-18T11:12:22;17.60;;;7.32;;
46731;SDS011;32477;51.474;5.696;2023-02-18T11:17:33;19.38;;;7.75;;
46731;SDS011;32477;51.474;5.696;2023-02-18T11:20:01;18.25;;;8.68;;
46731;SDS011;32477;51.474;5.696;2023-02-18T11:22:44;28.17;;;8.70;;
46731;SDS011;32477;51.474;5.696;2023-02-18T11:25:20;21.70;;;8.70;;
46731;SDS011;32477;51.474;5.696;2023-02-18T11:27:51;22.35;;;9.32;;
46731;SDS011;32477;51.474;5.696;2023-02-18T11:32:49;26.88;;;10.70;;
46731;SDS011;32477;51.474;5.696;2023-02-18T11:35:20;34.55;;;11.88;;
46731;SDS011;32477;51.474;5.696;2023-02-18T11:37:49;30.10;;;11.00;;
46731;SDS011;32477;51.474;5.696;2023-02-18T11:40:19;20.20;;;9.63;;
46731;SDS011;32477;51.474;5.696;2023-02-18T11:43:03;18.80;;;9.32;;
46731;SDS011;32477;51.474;5.696;2023-02-18T11:45:31;20.60;;;9.27;;
46731;SDS011;32477;51.474;5.696;2023-02-18T11:47:59;24.33;;;9.43;;
46731;SDS011;32477;51.474;5.696;2023-02-18T11:50:29;20.27;;;9.15;;
46731;SDS011;32477;51.474;5.696;2023-02-18T11:52:57;20.23;;;10.10;;
46731;SDS011;32477;51.474;5.696;2023-02-18T11:55:24;24.55;;;9.70;;
46731;SDS011;32477;51.474;5.696;2023-02-18T11:57:59;23.05;;;8.68;;
46731;SDS011;32477;51.474;5.696;2023-02-18T12:00:35;18.65;;;8.57;;
46731;SDS011;32477;51.474;5.696;2023-02-18T12:03:07;16.85;;;8.63;;
46731;SDS011;32477;51.474;5.696;2023-02-18T12:05:37;17.25;;;7.43;;
46731;SDS011;32477;51.474;5.696;2023-02-18T12:08:13;23.17;;;7.97;;
46731;SDS011;32477;51.474;5.696;2023-02-18T12:10:51;22.02;;;8.23;;
46731;SDS011;32477;51.474;5.696;2023-02-18T12:13:25;22.85;;;7.40;;
46731;SDS011;32477;51.474;5.696;2023-02-18T12:22:15;19.25;;;5.45;;
46731;SDS011;32477;51.474;5.696;2023-02-18T12:25:03;16.85;;;4.57;;
46731;SDS011;32477;51.474;5.696;2023-02-18T12:28:50;9.13;;;4.63;;
46731;SDS011;32477;51.474;5.696;2023-02-18T12:39:01;13.52;;;4.95;;
46731;SDS011;32477;51.474;5.696;2023-02-18T12:44:22;13.73;;;3.95;;
46731;SDS011;32477;51.474;5.696;2023-02-18T12:50:11;7.45;;;4.25;;
46731;SDS011;32477;51.474;5.696;2023-02-18T12:55:44;21.38;;;4.43;;
46731;SDS011;32477;51.474;5.696;2023-02-18T12:58:32;8.55;;;3.60;;
46731;SDS011;32477;51.474;5.696;2023-02-18T13:10:05;8.93;;;4.50;;
46731;SDS011;32477;51.474;5.696;2023-02-18T13:13:28;9.43;;;4.60;;
46731;SDS011;32477;51.474;5.696;2023-02-18T13:18:29;11.27;;;4.32;;
46731;SDS011;32477;51.474;5.696;2023-02-18T13:21:19;10.70;;;4.50;;
46731;SDS011;32477;51.474;5.696;2023-02-18T13:26:12;10.32;;;4.32;;
46731;SDS011;32477;51.474;5.696;2023-02-18T13:29:14;12.32;;;5.70;;
46731;SDS011;32477;51.474;5.696;2023-02-18T13:32:11;13.10;;;5.03;;
46731;SDS011;32477;51.474;5.696;2023-02-18T13:34:59;13.70;;;4.78;;
46731;SDS011;32477;51.474;5.696;2023-02-18T13:40:24;8.80;;;4.78;;
46731;SDS011;32477;51.474;5.696;2023-02-18T13:42:54;11.00;;;5.00;;
46731;SDS011;32477;51.474;5.696;2023-02-18T13:45:39;11.05;;;4.70;;
46731;SDS011;32477;51.474;5.696;2023-02-18T13:48:19;16.63;;;5.22;;
46731;SDS011;32477;51.474;5.696;2023-02-18T13:50:47;13.05;;;5.07;;
46731;SDS011;32477;51.474;5.696;2023-02-18T13:53:14;13.80;;;5.95;;
46731;SDS011;32477;51.474;5.696;2023-02-18T13:55:50;11.05;;;4.65;;
46731;SDS011;32477;51.474;5.696;2023-02-18T14:03:36;11.80;;;6.00;;
46731;SDS011;32477;51.474;5.696;2023-02-18T14:06:20;13.43;;;5.53;;
46731;SDS011;32477;51.474;5.696;2023-02-18T14:08:47;12.95;;;5.63;;
46731;SDS011;32477;51.474;5.696;2023-02-18T14:16:18;14.65;;;4.15;;
46731;SDS011;32477;51.474;5.696;2023-02-18T14:28:50;13.07;;;5.20;;
46731;SDS011;32477;51.474;5.696;2023-02-18T14:36:31;17.98;;;6.00;;
46731;SDS011;32477;51.474;5.696;2023-02-18T14:39:23;7.07;;;5.13;;
46731;SDS011;32477;51.474;5.696;2023-02-18T14:48:02;12.13;;;6.68;;
46731;SDS011;32477;51.474;5.696;2023-02-18T14:50:37;21.90;;;7.03;;
46731;SDS011;32477;51.474;5.696;2023-02-18T14:53:06;15.30;;;6.25;;
46731;SDS011;32477;51.474;5.696;2023-02-18T14:55:39;13.10;;;6.22;;
46731;SDS011;32477;51.474;5.696;2023-02-18T14:58:13;16.33;;;6.68;;
46731;SDS011;32477;51.474;5.696;2023-02-18T15:01:34;19.05;;;7.03;;
46731;SDS011;32477;51.474;5.696;2023-02-18T15:03:53;19.35;;;7.53;;
46731;SDS011;32477;51.474;5.696;2023-02-18T15:06:21;21.65;;;6.72;;
46731;SDS011;32477;51.474;5.696;2023-02-18T15:08:53;11.15;;;6.07;;
46731;SDS011;32477;51.474;5.696;2023-02-18T15:11:20;23.50;;;7.15;;
46731;SDS011;32477;51.474;5.696;2023-02-18T15:13:48;16.33;;;7.18;;
46731;SDS011;32477;51.474;5.696;2023-02-18T15:16:16;21.58;;;7.65;;
46731;SDS011;32477;51.474;5.696;2023-02-18T15:18:55;12.10;;;6.25;;
46731;SDS011;32477;51.474;5.696;2023-02-18T15:21:46;20.00;;;6.22;;
46731;SDS011;32477;51.474;5.696;2023-02-18T15:24:22;21.48;;;7.13;;
46731;SDS011;32477;51.474;5.696;2023-02-18T15:26:50;22.65;;;6.80;;
46731;SDS011;32477;51.474;5.696;2023-02-18T15:29:19;15.70;;;5.97;;
46731;SDS011;32477;51.474;5.696;2023-02-18T15:31:49;13.00;;;6.13;;
46731;SDS011;32477;51.474;5.696;2023-02-18T15:36:53;14.20;;;6.18;;
46731;SDS011;32477;51.474;5.696;2023-02-18T15:39:19;21.90;;;7.45;;
46731;SDS011;32477;51.474;5.696;2023-02-18T15:41:45;9.93;;;5.40;;
46731;SDS011;32477;51.474;5.696;2023-02-18T15:44:16;14.13;;;5.93;;
46731;SDS011;32477;51.474;5.696;2023-02-18T15:46:45;10.45;;;5.80;;
46731;SDS011;32477;51.474;5.696;2023-02-18T15:49:12;18.70;;;7.00;;
46731;SDS011;32477;51.474;5.696;2023-02-18T15:51:41;11.75;;;6.05;;
46731;SDS011;32477;51.474;5.696;2023-02-18T15:54:12;16.88;;;6.38;;
46731;SDS011;32477;51.474;5.696;2023-02-18T15:56:42;17.40;;;5.70;;
46731;SDS011;32477;51.474;5.696;2023-02-18T15:59:27;18.02;;;6.78;;
46731;SDS011;32477;51.474;5.696;2023-02-18T16:02:18;18.75;;;7.20;;
46731;SDS011;32477;51.474;5.696;2023-02-18T16:04:56;11.13;;;5.82;;
46731;SDS011;32477;51.474;5.696;2023-02-18T16:07:25;16.73;;;6.50;;
46731;SDS011;32477;51.474;5.696;2023-02-18T16:10:04;17.75;;;7.68;;
46731;SDS011;32477;51.474;5.696;2023-02-18T16:12:50;27.20;;;8.60;;
46731;SDS011;32477;51.474;5.696;2023-02-18T16:15:22;22.33;;;8.95;;
46731;SDS011;32477;51.474;5.696;2023-02-18T16:17:50;19.52;;;9.60;;
46731;SDS011;32477;51.474;5.696;2023-02-18T16:20:28;18.58;;;9.57;;
46731;SDS011;32477;51.474;5.696;2023-02-18T16:22:58;18.70;;;10.38;;
46731;SDS011;32477;51.474;5.696;2023-02-18T16:25:38;24.27;;;10.80;;
46731;SDS011;32477;51.474;5.696;2023-02-18T16:28:13;23.35;;;10.82;;
46731;SDS011;32477;51.474;5.696;2023-02-18T16:31:05;19.08;;;10.85;;
46731;SDS011;32477;51.474;5.696;2023-02-18T16:33:30;21.30;;;10.25;;
46731;SDS011;32477;51.474;5.696;2023-02-18T16:35:56;22.52;;;10.30;;
46731;SDS011;32477;51.474;5.696;2023-02-18T16:38:23;17.40;;;10.65;;
46731;SDS011;32477;51.474;5.696;2023-02-18T16:40:49;24.52;;;11.07;;
46731;SDS011;32477;51.474;5.696;2023-02-18T16:43:19;22.40;;;12.18;;
46731;SDS011;32477;51.474;5.696;2023-02-18T16:45:52;25.13;;;13.60;;
46731;SDS011;32477;51.474;5.696;2023-02-18T16:51:01;25.85;;;12.63;;
46731;SDS011;32477;51.474;5.696;2023-02-18T16:53:35;22.42;;;12.57;;
46731;SDS011;32477;51.474;5.696;2023-02-18T16:56:04;31.02;;;14.63;;
46731;SDS011;32477;51.474;5.696;2023-02-18T16:58:36;26.65;;;15.32;;
46731;SDS011;32477;51.474;5.696;2023-02-18T17:01:02;30.50;;;15.52;;